sensor_id;sensor_type;location;lat;lon;timestamp;P1;durP1;ratioP1;P2;durP2;ratioP2
67063;SDS011;58476;48.072;11.970;2023-05-07T00:00:21;3.35;;;1.90;;
67063;SDS011;58476;48.072;11.970;2023-05-07T00:02:47;2.70;;;1.80;;
67063;SDS011;58476;48.072;11.970;2023-05-07T00:05:12;4.43;;;1.90;;
67063;SDS011;58476;48.072;11.970;2023-05-07T00:07:38;2.38;;;1.70;;
67063;SDS011;58476;48.072;11.970;2023-05-07T00:10:03;3.58;;;1.92;;
67063;SDS011;58476;48.072;11.970;2023-05-07T00:12:29;6.57;;;2.03;;
67063;SDS011;58476;48.072;11.970;2023-05-07T00:14:55;3.60;;;1.88;;
67063;SDS011;58476;48.072;11.970;2023-05-07T00:17:20;2.78;;;1.80;;
67063;SDS011;58476;48.072;11.970;2023-05-07T00:19:45;2.83;;;1.83;;
67063;SDS011;58476;48.072;11.970;2023-05-07T00:22:11;3.92;;;2.10;;
67063;SDS011;58476;48.072;11.970;2023-05-07T00:24:36;3.15;;;1.90;;
67063;SDS011;58476;48.072;11.970;2023-05-07T00:27:01;4.18;;;1.88;;
67063;SDS011;58476;48.072;11.970;2023-05-07T00:29:27;2.75;;;2.00;;
67063;SDS011;58476;48.072;11.970;2023-05-07T00:31:52;3.28;;;1.90;;
67063;SDS011;58476;48.072;11.970;2023-05-07T00:34:18;3.75;;;1.90;;
67063;SDS011;58476;48.072;11.970;2023-05-07T00:36:43;2.15;;;1.85;;
67063;SDS011;58476;48.072;11.970;2023-05-07T00:39:09;4.22;;;2.08;;
67063;SDS011;58476;48.072;11.970;2023-05-07T00:41:34;2.90;;;1.90;;
67063;SDS011;58476;48.072;11.970;2023-05-07T00:43:59;3.17;;;1.70;;
67063;SDS011;58476;48.072;11.970;2023-05-07T00:46:25;5.43;;;1.80;;
67063;SDS011;58476;48.072;11.970;2023-05-07T00:48:50;2.00;;;1.67;;
67063;SDS011;58476;48.072;11.970;2023-05-07T00:51:16;2.72;;;1.73;;
67063;SDS011;58476;48.072;11.970;2023-05-07T00:53:42;2.33;;;1.80;;
67063;SDS011;58476;48.072;11.970;2023-05-07T00:56:08;2.75;;;2.00;;
67063;SDS011;58476;48.072;11.970;2023-05-07T00:58:34;2.40;;;1.80;;
67063;SDS011;58476;48.072;11.970;2023-05-07T01:00:59;3.40;;;1.90;;
67063;SDS011;58476;48.072;11.970;2023-05-07T01:03:25;2.75;;;1.67;;
67063;SDS011;58476;48.072;11.970;2023-05-07T01:05:50;1.67;;;1.58;;
67063;SDS011;58476;48.072;11.970;2023-05-07T01:08:18;2.17;;;1.70;;
67063;SDS011;58476;48.072;11.970;2023-05-07T01:10:43;4.57;;;1.75;;
67063;SDS011;58476;48.072;11.970;2023-05-07T01:13:10;2.35;;;1.50;;
67063;SDS011;58476;48.072;11.970;2023-05-07T01:15:37;4.18;;;2.08;;
67063;SDS011;58476;48.072;11.970;2023-05-07T01:18:04;1.90;;;1.70;;
67063;SDS011;58476;48.072;11.970;2023-05-07T01:20:33;1.95;;;1.55;;
67063;SDS011;58476;48.072;11.970;2023-05-07T01:22:58;2.10;;;1.60;;
67063;SDS011;58476;48.072;11.970;2023-05-07T01:25:25;2.67;;;1.70;;
67063;SDS011;58476;48.072;11.970;2023-05-07T01:27:54;2.17;;;1.50;;
67063;SDS011;58476;48.072;11.970;2023-05-07T01:30:24;4.45;;;1.90;;
67063;SDS011;58476;48.072;11.970;2023-05-07T01:32:56;2.10;;;1.92;;
67063;SDS011;58476;48.072;11.970;2023-05-07T01:35:29;3.58;;;2.00;;
67063;SDS011;58476;48.072;11.970;2023-05-07T01:37:58;2.30;;;1.50;;
67063;SDS011;58476;48.072;11.970;2023-05-07T01:40:24;2.60;;;1.70;;
67063;SDS011;58476;48.072;11.970;2023-05-07T01:42:50;2.55;;;1.70;;
67063;SDS011;58476;48.072;11.970;2023-05-07T01:45:16;1.77;;;1.60;;
67063;SDS011;58476;48.072;11.970;2023-05-07T01:47:41;2.13;;;1.60;;
67063;SDS011;58476;48.072;11.970;2023-05-07T01:50:08;2.13;;;1.58;;
67063;SDS011;58476;48.072;11.970;2023-05-07T01:52:34;2.85;;;1.52;;
67063;SDS011;58476;48.072;11.970;2023-05-07T01:54:59;1.75;;;1.58;;
67063;SDS011;58476;48.072;11.970;2023-05-07T01:57:25;1.65;;;1.55;;
67063;SDS011;58476;48.072;11.970;2023-05-07T01:59:50;1.55;;;1.45;;
67063;SDS011;58476;48.072;11.970;2023-05-07T02:02:15;1.98;;;1.50;;
67063;SDS011;58476;48.072;11.970;2023-05-07T02:04:43;1.70;;;1.60;;
67063;SDS011;58476;48.072;11.970;2023-05-07T02:07:08;1.77;;;1.40;;
67063;SDS011;58476;48.072;11.970;2023-05-07T02:09:34;1.65;;;1.55;;
67063;SDS011;58476;48.072;11.970;2023-05-07T02:11:59;3.40;;;1.58;;
67063;SDS011;58476;48.072;11.970;2023-05-07T02:14:25;1.75;;;1.60;;
67063;SDS011;58476;48.072;11.970;2023-05-07T02:16:50;2.70;;;1.70;;
67063;SDS011;58476;48.072;11.970;2023-05-07T02:19:16;1.58;;;1.35;;
67063;SDS011;58476;48.072;11.970;2023-05-07T02:21:41;1.65;;;1.50;;
67063;SDS011;58476;48.072;11.970;2023-05-07T02:24:07;1.50;;;1.40;;
67063;SDS011;58476;48.072;11.970;2023-05-07T02:26:32;1.73;;;1.50;;
67063;SDS011;58476;48.072;11.970;2023-05-07T02:28:57;2.05;;;1.50;;
67063;SDS011;58476;48.072;11.970;2023-05-07T02:31:23;1.85;;;1.60;;
67063;SDS011;58476;48.072;11.970;2023-05-07T02:33:48;1.73;;;1.58;;
67063;SDS011;58476;48.072;11.970;2023-05-07T02:36:14;1.40;;;1.30;;
67063;SDS011;58476;48.072;11.970;2023-05-07T02:38:46;2.22;;;1.60;;
67063;SDS011;58476;48.072;11.970;2023-05-07T02:41:11;2.30;;;1.60;;
67063;SDS011;58476;48.072;11.970;2023-05-07T02:43:36;1.58;;;1.48;;
67063;SDS011;58476;48.072;11.970;2023-05-07T02:46:03;1.50;;;1.40;;
67063;SDS011;58476;48.072;11.970;2023-05-07T02:48:29;1.58;;;1.33;;
67063;SDS011;58476;48.072;11.970;2023-05-07T02:50:55;1.60;;;1.50;;
67063;SDS011;58476;48.072;11.970;2023-05-07T02:53:20;2.67;;;1.75;;
67063;SDS011;58476;48.072;11.970;2023-05-07T02:55:46;1.65;;;1.55;;
67063;SDS011;58476;48.072;11.970;2023-05-07T02:58:11;1.67;;;1.48;;
67063;SDS011;58476;48.072;11.970;2023-05-07T03:00:38;2.67;;;1.50;;
67063;SDS011;58476;48.072;11.970;2023-05-07T03:03:20;1.60;;;1.50;;
67063;SDS011;58476;48.072;11.970;2023-05-07T03:05:45;2.08;;;1.60;;
67063;SDS011;58476;48.072;11.970;2023-05-07T03:08:11;1.80;;;1.50;;
67063;SDS011;58476;48.072;11.970;2023-05-07T03:10:36;2.95;;;1.60;;
67063;SDS011;58476;48.072;11.970;2023-05-07T03:13:02;1.77;;;1.33;;
67063;SDS011;58476;48.072;11.970;2023-05-07T03:15:28;1.60;;;1.50;;
67063;SDS011;58476;48.072;11.970;2023-05-07T03:17:53;1.65;;;1.40;;
67063;SDS011;58476;48.072;11.970;2023-05-07T03:20:19;1.63;;;1.50;;
67063;SDS011;58476;48.072;11.970;2023-05-07T03:22:44;1.70;;;1.60;;
67063;SDS011;58476;48.072;11.970;2023-05-07T03:25:09;3.60;;;1.55;;
67063;SDS011;58476;48.072;11.970;2023-05-07T03:27:35;1.50;;;1.40;;
67063;SDS011;58476;48.072;11.970;2023-05-07T03:30:00;2.05;;;1.50;;
67063;SDS011;58476;48.072;11.970;2023-05-07T03:32:26;1.50;;;1.40;;
67063;SDS011;58476;48.072;11.970;2023-05-07T03:34:51;1.67;;;1.50;;
67063;SDS011;58476;48.072;11.970;2023-05-07T03:37:17;1.58;;;1.40;;
67063;SDS011;58476;48.072;11.970;2023-05-07T03:39:43;1.40;;;1.30;;
67063;SDS011;58476;48.072;11.970;2023-05-07T03:42:09;1.50;;;1.40;;
67063;SDS011;58476;48.072;11.970;2023-05-07T03:44:34;1.60;;;1.40;;
67063;SDS011;58476;48.072;11.970;2023-05-07T03:47:00;1.90;;;1.50;;
67063;SDS011;58476;48.072;11.970;2023-05-07T03:49:25;1.40;;;1.30;;
67063;SDS011;58476;48.072;11.970;2023-05-07T03:51:51;1.50;;;1.40;;
67063;SDS011;58476;48.072;11.970;2023-05-07T03:54:16;1.63;;;1.40;;
67063;SDS011;58476;48.072;11.970;2023-05-07T03:56:44;1.55;;;1.40;;
67063;SDS011;58476;48.072;11.970;2023-05-07T03:59:10;2.60;;;1.42;;
67063;SDS011;58476;48.072;11.970;2023-05-07T04:01:35;1.63;;;1.38;;
67063;SDS011;58476;48.072;11.970;2023-05-07T04:04:01;1.85;;;1.40;;
67063;SDS011;58476;48.072;11.970;2023-05-07T04:06:27;1.60;;;1.50;;
67063;SDS011;58476;48.072;11.970;2023-05-07T04:08:52;1.45;;;1.30;;
67063;SDS011;58476;48.072;11.970;2023-05-07T04:11:17;2.20;;;1.52;;
67063;SDS011;58476;48.072;11.970;2023-05-07T04:13:43;1.85;;;1.40;;
67063;SDS011;58476;48.072;11.970;2023-05-07T04:16:08;1.55;;;1.45;;
67063;SDS011;58476;48.072;11.970;2023-05-07T04:18:35;1.77;;;1.50;;
67063;SDS011;58476;48.072;11.970;2023-05-07T04:21:00;3.20;;;1.48;;
67063;SDS011;58476;48.072;11.970;2023-05-07T04:23:26;1.55;;;1.45;;
67063;SDS011;58476;48.072;11.970;2023-05-07T04:25:52;2.13;;;1.50;;
67063;SDS011;58476;48.072;11.970;2023-05-07T04:28:26;2.78;;;1.30;;
67063;SDS011;58476;48.072;11.970;2023-05-07T04:30:52;1.50;;;1.40;;
67063;SDS011;58476;48.072;11.970;2023-05-07T04:33:18;1.60;;;1.50;;
67063;SDS011;58476;48.072;11.970;2023-05-07T04:35:45;1.40;;;1.30;;
67063;SDS011;58476;48.072;11.970;2023-05-07T04:38:11;1.70;;;1.60;;
67063;SDS011;58476;48.072;11.970;2023-05-07T04:40:36;1.65;;;1.48;;
67063;SDS011;58476;48.072;11.970;2023-05-07T04:43:02;1.40;;;1.30;;
67063;SDS011;58476;48.072;11.970;2023-05-07T04:45:30;1.58;;;1.48;;
67063;SDS011;58476;48.072;11.970;2023-05-07T04:47:56;1.60;;;1.50;;
67063;SDS011;58476;48.072;11.970;2023-05-07T04:50:21;1.65;;;1.55;;
67063;SDS011;58476;48.072;11.970;2023-05-07T04:52:47;1.38;;;1.30;;
67063;SDS011;58476;48.072;11.970;2023-05-07T04:55:13;1.70;;;1.40;;
67063;SDS011;58476;48.072;11.970;2023-05-07T04:57:39;1.60;;;1.50;;
67063;SDS011;58476;48.072;11.970;2023-05-07T05:00:05;1.50;;;1.38;;
67063;SDS011;58476;48.072;11.970;2023-05-07T05:02:33;1.52;;;1.40;;
67063;SDS011;58476;48.072;11.970;2023-05-07T05:04:58;1.58;;;1.48;;
67063;SDS011;58476;48.072;11.970;2023-05-07T05:07:23;1.92;;;1.70;;
67063;SDS011;58476;48.072;11.970;2023-05-07T05:09:50;1.60;;;1.50;;
67063;SDS011;58476;48.072;11.970;2023-05-07T05:12:16;1.58;;;1.48;;
67063;SDS011;58476;48.072;11.970;2023-05-07T05:14:41;1.95;;;1.50;;
67063;SDS011;58476;48.072;11.970;2023-05-07T05:17:06;1.60;;;1.50;;
67063;SDS011;58476;48.072;11.970;2023-05-07T05:19:32;1.75;;;1.33;;
67063;SDS011;58476;48.072;11.970;2023-05-07T05:21:58;2.28;;;1.60;;
67063;SDS011;58476;48.072;11.970;2023-05-07T05:24:23;2.70;;;1.60;;
67063;SDS011;58476;48.072;11.970;2023-05-07T05:26:48;1.85;;;1.50;;
67063;SDS011;58476;48.072;11.970;2023-05-07T05:29:14;1.90;;;1.70;;
67063;SDS011;58476;48.072;11.970;2023-05-07T05:31:41;1.75;;;1.65;;
67063;SDS011;58476;48.072;11.970;2023-05-07T05:34:06;2.17;;;1.75;;
67063;SDS011;58476;48.072;11.970;2023-05-07T05:36:32;2.80;;;1.55;;
67063;SDS011;58476;48.072;11.970;2023-05-07T05:38:57;2.42;;;1.83;;
67063;SDS011;58476;48.072;11.970;2023-05-07T05:41:23;2.22;;;1.88;;
67063;SDS011;58476;48.072;11.970;2023-05-07T05:43:49;1.90;;;1.70;;
67063;SDS011;58476;48.072;11.970;2023-05-07T05:46:15;1.73;;;1.63;;
67063;SDS011;58476;48.072;11.970;2023-05-07T05:48:40;3.17;;;1.83;;
67063;SDS011;58476;48.072;11.970;2023-05-07T05:51:06;2.60;;;2.40;;
67063;SDS011;58476;48.072;11.970;2023-05-07T05:53:31;2.88;;;1.75;;
67063;SDS011;58476;48.072;11.970;2023-05-07T05:55:57;1.92;;;1.75;;
67063;SDS011;58476;48.072;11.970;2023-05-07T05:58:22;2.13;;;1.88;;
67063;SDS011;58476;48.072;11.970;2023-05-07T06:00:54;1.88;;;1.60;;
67063;SDS011;58476;48.072;11.970;2023-05-07T06:03:22;2.92;;;1.77;;
67063;SDS011;58476;48.072;11.970;2023-05-07T06:05:48;3.25;;;1.80;;
67063;SDS011;58476;48.072;11.970;2023-05-07T06:08:13;6.65;;;2.05;;
67063;SDS011;58476;48.072;11.970;2023-05-07T06:10:39;9.75;;;1.90;;
67063;SDS011;58476;48.072;11.970;2023-05-07T06:13:06;12.05;;;2.25;;
67063;SDS011;58476;48.072;11.970;2023-05-07T06:15:33;8.75;;;1.75;;
67063;SDS011;58476;48.072;11.970;2023-05-07T06:18:04;4.93;;;1.75;;
67063;SDS011;58476;48.072;11.970;2023-05-07T06:20:29;11.00;;;2.20;;
67063;SDS011;58476;48.072;11.970;2023-05-07T06:22:55;7.47;;;2.92;;
67063;SDS011;58476;48.072;11.970;2023-05-07T06:25:21;10.38;;;5.65;;
67063;SDS011;58476;48.072;11.970;2023-05-07T06:27:47;11.70;;;5.53;;
67063;SDS011;58476;48.072;11.970;2023-05-07T06:30:12;12.25;;;4.70;;
67063;SDS011;58476;48.072;11.970;2023-05-07T06:32:39;4.80;;;3.70;;
67063;SDS011;58476;48.072;11.970;2023-05-07T06:35:06;3.72;;;2.97;;
67063;SDS011;58476;48.072;11.970;2023-05-07T06:37:34;11.73;;;2.80;;
67063;SDS011;58476;48.072;11.970;2023-05-07T06:40:03;3.30;;;2.25;;
67063;SDS011;58476;48.072;11.970;2023-05-07T06:42:31;5.13;;;2.17;;
67063;SDS011;58476;48.072;11.970;2023-05-07T06:45:02;5.30;;;2.85;;
67063;SDS011;58476;48.072;11.970;2023-05-07T06:47:29;9.15;;;3.22;;
67063;SDS011;58476;48.072;11.970;2023-05-07T06:49:54;9.70;;;4.10;;
67063;SDS011;58476;48.072;11.970;2023-05-07T06:52:23;6.15;;;2.83;;
67063;SDS011;58476;48.072;11.970;2023-05-07T06:54:50;8.88;;;4.60;;
67063;SDS011;58476;48.072;11.970;2023-05-07T06:57:17;8.15;;;2.85;;
67063;SDS011;58476;48.072;11.970;2023-05-07T06:59:42;7.85;;;2.92;;
67063;SDS011;58476;48.072;11.970;2023-05-07T07:02:07;4.93;;;2.65;;
67063;SDS011;58476;48.072;11.970;2023-05-07T07:04:33;6.60;;;2.60;;
67063;SDS011;58476;48.072;11.970;2023-05-07T07:07:03;4.82;;;2.40;;
67063;SDS011;58476;48.072;11.970;2023-05-07T07:09:28;4.32;;;2.10;;
67063;SDS011;58476;48.072;11.970;2023-05-07T07:11:54;5.15;;;2.20;;
67063;SDS011;58476;48.072;11.970;2023-05-07T07:14:19;3.42;;;2.05;;
67063;SDS011;58476;48.072;11.970;2023-05-07T07:16:48;6.70;;;2.00;;
67063;SDS011;58476;48.072;11.970;2023-05-07T07:19:16;7.63;;;2.50;;
67063;SDS011;58476;48.072;11.970;2023-05-07T07:21:42;6.35;;;1.92;;
67063;SDS011;58476;48.072;11.970;2023-05-07T07:24:09;6.40;;;2.00;;
67063;SDS011;58476;48.072;11.970;2023-05-07T07:26:34;4.47;;;2.08;;
67063;SDS011;58476;48.072;11.970;2023-05-07T07:29:00;5.53;;;1.75;;
67063;SDS011;58476;48.072;11.970;2023-05-07T07:31:25;7.93;;;2.08;;
67063;SDS011;58476;48.072;11.970;2023-05-07T07:33:50;6.20;;;2.00;;
67063;SDS011;58476;48.072;11.970;2023-05-07T07:36:16;7.47;;;2.08;;
67063;SDS011;58476;48.072;11.970;2023-05-07T07:38:42;5.38;;;2.10;;
67063;SDS011;58476;48.072;11.970;2023-05-07T07:41:08;5.25;;;2.00;;
67063;SDS011;58476;48.072;11.970;2023-05-07T07:43:33;8.30;;;1.92;;
67063;SDS011;58476;48.072;11.970;2023-05-07T07:45:59;6.80;;;1.90;;
67063;SDS011;58476;48.072;11.970;2023-05-07T07:48:25;2.22;;;1.58;;
67063;SDS011;58476;48.072;11.970;2023-05-07T07:50:51;3.22;;;2.03;;
67063;SDS011;58476;48.072;11.970;2023-05-07T07:53:17;2.88;;;1.90;;
67063;SDS011;58476;48.072;11.970;2023-05-07T07:55:43;3.97;;;1.90;;
67063;SDS011;58476;48.072;11.970;2023-05-07T07:58:11;5.63;;;2.03;;
67063;SDS011;58476;48.072;11.970;2023-05-07T08:00:37;4.30;;;1.80;;
67063;SDS011;58476;48.072;11.970;2023-05-07T08:03:02;4.00;;;1.80;;
67063;SDS011;58476;48.072;11.970;2023-05-07T08:05:31;3.50;;;2.30;;
67063;SDS011;58476;48.072;11.970;2023-05-07T08:07:57;6.65;;;2.05;;
67063;SDS011;58476;48.072;11.970;2023-05-07T08:10:27;3.17;;;1.70;;
67063;SDS011;58476;48.072;11.970;2023-05-07T08:12:58;4.07;;;2.70;;
67063;SDS011;58476;48.072;11.970;2023-05-07T08:15:24;1.90;;;1.80;;
67063;SDS011;58476;48.072;11.970;2023-05-07T08:17:50;2.53;;;1.60;;
67063;SDS011;58476;48.072;11.970;2023-05-07T08:20:15;2.10;;;1.90;;
67063;SDS011;58476;48.072;11.970;2023-05-07T08:22:41;3.83;;;1.70;;
67063;SDS011;58476;48.072;11.970;2023-05-07T08:25:06;2.33;;;1.70;;
67063;SDS011;58476;48.072;11.970;2023-05-07T08:27:32;4.75;;;1.92;;
67063;SDS011;58476;48.072;11.970;2023-05-07T08:29:58;3.13;;;1.70;;
67063;SDS011;58476;48.072;11.970;2023-05-07T08:32:24;3.55;;;1.73;;
67063;SDS011;58476;48.072;11.970;2023-05-07T08:34:49;2.00;;;1.80;;
67063;SDS011;58476;48.072;11.970;2023-05-07T08:37:14;1.95;;;1.60;;
67063;SDS011;58476;48.072;11.970;2023-05-07T08:39:40;6.20;;;1.90;;
67063;SDS011;58476;48.072;11.970;2023-05-07T08:42:11;4.57;;;1.85;;
67063;SDS011;58476;48.072;11.970;2023-05-07T08:44:38;2.00;;;1.80;;
67063;SDS011;58476;48.072;11.970;2023-05-07T08:47:06;1.52;;;1.42;;
67063;SDS011;58476;48.072;11.970;2023-05-07T08:49:33;1.60;;;1.50;;
67063;SDS011;58476;48.072;11.970;2023-05-07T08:51:59;2.15;;;1.70;;
67063;SDS011;58476;48.072;11.970;2023-05-07T08:54:26;3.72;;;1.60;;
67063;SDS011;58476;48.072;11.970;2023-05-07T08:56:53;3.05;;;1.75;;
67063;SDS011;58476;48.072;11.970;2023-05-07T08:59:19;4.10;;;1.88;;
67063;SDS011;58476;48.072;11.970;2023-05-07T09:01:44;2.78;;;1.80;;
67063;SDS011;58476;48.072;11.970;2023-05-07T09:04:10;2.30;;;1.70;;
67063;SDS011;58476;48.072;11.970;2023-05-07T09:06:36;3.38;;;1.83;;
67063;SDS011;58476;48.072;11.970;2023-05-07T09:09:02;4.72;;;1.88;;
67063;SDS011;58476;48.072;11.970;2023-05-07T09:11:29;5.50;;;1.70;;
67063;SDS011;58476;48.072;11.970;2023-05-07T09:13:58;4.68;;;1.73;;
67063;SDS011;58476;48.072;11.970;2023-05-07T09:16:25;2.88;;;1.55;;
67063;SDS011;58476;48.072;11.970;2023-05-07T09:18:51;5.30;;;2.55;;
67063;SDS011;58476;48.072;11.970;2023-05-07T09:21:17;2.95;;;1.70;;
67063;SDS011;58476;48.072;11.970;2023-05-07T09:23:47;2.15;;;1.80;;
67063;SDS011;58476;48.072;11.970;2023-05-07T09:26:14;5.00;;;1.80;;
67063;SDS011;58476;48.072;11.970;2023-05-07T09:28:41;4.25;;;1.70;;
67063;SDS011;58476;48.072;11.970;2023-05-07T09:31:09;7.85;;;2.00;;
67063;SDS011;58476;48.072;11.970;2023-05-07T09:33:36;5.65;;;2.00;;
67063;SDS011;58476;48.072;11.970;2023-05-07T09:36:07;8.73;;;1.77;;
67063;SDS011;58476;48.072;11.970;2023-05-07T09:38:36;10.77;;;2.10;;
67063;SDS011;58476;48.072;11.970;2023-05-07T09:43:32;7.80;;;2.38;;
67063;SDS011;58476;48.072;11.970;2023-05-07T09:45:59;6.07;;;1.92;;
67063;SDS011;58476;48.072;11.970;2023-05-07T09:48:31;6.93;;;2.20;;
67063;SDS011;58476;48.072;11.970;2023-05-07T09:51:01;5.65;;;2.13;;
67063;SDS011;58476;48.072;11.970;2023-05-07T09:55:55;8.13;;;2.33;;
67063;SDS011;58476;48.072;11.970;2023-05-07T09:58:22;7.70;;;2.67;;
67063;SDS011;58476;48.072;11.970;2023-05-07T10:00:49;6.88;;;1.90;;
67063;SDS011;58476;48.072;11.970;2023-05-07T10:03:16;7.18;;;2.20;;
67063;SDS011;58476;48.072;11.970;2023-05-07T10:05:55;6.30;;;1.90;;
67063;SDS011;58476;48.072;11.970;2023-05-07T10:08:21;7.13;;;2.20;;
67063;SDS011;58476;48.072;11.970;2023-05-07T10:10:50;7.70;;;1.92;;
67063;SDS011;58476;48.072;11.970;2023-05-07T10:13:19;3.85;;;2.20;;
67063;SDS011;58476;48.072;11.970;2023-05-07T10:15:48;5.15;;;1.88;;
67063;SDS011;58476;48.072;11.970;2023-05-07T10:18:15;4.88;;;2.00;;
67063;SDS011;58476;48.072;11.970;2023-05-07T10:20:46;7.90;;;1.83;;
67063;SDS011;58476;48.072;11.970;2023-05-07T10:23:13;4.05;;;1.67;;
67063;SDS011;58476;48.072;11.970;2023-05-07T10:25:46;7.93;;;2.00;;
67063;SDS011;58476;48.072;11.970;2023-05-07T10:28:19;6.05;;;2.33;;
67063;SDS011;58476;48.072;11.970;2023-05-07T10:33:13;3.08;;;1.70;;
67063;SDS011;58476;48.072;11.970;2023-05-07T10:35:43;3.47;;;1.67;;
67063;SDS011;58476;48.072;11.970;2023-05-07T10:38:10;3.50;;;1.80;;
67063;SDS011;58476;48.072;11.970;2023-05-07T10:40:38;2.80;;;1.80;;
67063;SDS011;58476;48.072;11.970;2023-05-07T10:43:06;3.55;;;1.63;;
67063;SDS011;58476;48.072;11.970;2023-05-07T10:45:38;4.25;;;1.60;;
67063;SDS011;58476;48.072;11.970;2023-05-07T10:48:11;4.80;;;2.10;;
67063;SDS011;58476;48.072;11.970;2023-05-07T10:50:45;4.32;;;2.05;;
67063;SDS011;58476;48.072;11.970;2023-05-07T10:55:48;11.63;;;3.03;;
67063;SDS011;58476;48.072;11.970;2023-05-07T10:58:41;7.30;;;2.53;;
67063;SDS011;58476;48.072;11.970;2023-05-07T11:01:48;5.70;;;2.05;;
67063;SDS011;58476;48.072;11.970;2023-05-07T11:04:27;7.88;;;2.83;;
67063;SDS011;58476;48.072;11.970;2023-05-07T11:15:09;13.10;;;2.55;;
67063;SDS011;58476;48.072;11.970;2023-05-07T11:17:56;7.53;;;2.47;;
67063;SDS011;58476;48.072;11.970;2023-05-07T11:26:05;14.43;;;2.90;;
67063;SDS011;58476;48.072;11.970;2023-05-07T11:28:41;9.95;;;2.75;;
67063;SDS011;58476;48.072;11.970;2023-05-07T11:31:09;8.35;;;2.45;;
67063;SDS011;58476;48.072;11.970;2023-05-07T11:33:37;16.48;;;3.03;;
67063;SDS011;58476;48.072;11.970;2023-05-07T11:36:04;9.00;;;2.53;;
67063;SDS011;58476;48.072;11.970;2023-05-07T11:38:37;10.35;;;2.40;;
67063;SDS011;58476;48.072;11.970;2023-05-07T11:41:02;12.18;;;2.80;;
67063;SDS011;58476;48.072;11.970;2023-05-07T11:43:28;9.20;;;2.20;;
67063;SDS011;58476;48.072;11.970;2023-05-07T11:45:53;21.13;;;3.47;;
67063;SDS011;58476;48.072;11.970;2023-05-07T11:48:19;15.20;;;3.38;;
67063;SDS011;58476;48.072;11.970;2023-05-07T11:50:50;10.27;;;2.55;;
67063;SDS011;58476;48.072;11.970;2023-05-07T11:53:35;15.27;;;3.03;;
67063;SDS011;58476;48.072;11.970;2023-05-07T11:56:05;8.18;;;2.13;;
67063;SDS011;58476;48.072;11.970;2023-05-07T11:58:35;15.95;;;2.78;;
67063;SDS011;58476;48.072;11.970;2023-05-07T12:01:00;12.27;;;3.05;;
67063;SDS011;58476;48.072;11.970;2023-05-07T12:03:26;12.10;;;2.83;;
67063;SDS011;58476;48.072;11.970;2023-05-07T12:05:51;9.52;;;2.95;;
67063;SDS011;58476;48.072;11.970;2023-05-07T12:08:17;11.93;;;2.65;;
67063;SDS011;58476;48.072;11.970;2023-05-07T12:10:43;11.60;;;3.05;;
67063;SDS011;58476;48.072;11.970;2023-05-07T12:13:23;8.32;;;2.78;;
67063;SDS011;58476;48.072;11.970;2023-05-07T12:15:52;6.00;;;2.47;;
67063;SDS011;58476;48.072;11.970;2023-05-07T12:18:18;6.45;;;2.20;;
67063;SDS011;58476;48.072;11.970;2023-05-07T12:20:45;7.68;;;2.75;;
67063;SDS011;58476;48.072;11.970;2023-05-07T12:23:10;8.68;;;2.63;;
67063;SDS011;58476;48.072;11.970;2023-05-07T12:25:37;5.88;;;2.28;;
67063;SDS011;58476;48.072;11.970;2023-05-07T12:28:04;7.28;;;2.20;;
67063;SDS011;58476;48.072;11.970;2023-05-07T12:30:30;10.65;;;2.95;;
67063;SDS011;58476;48.072;11.970;2023-05-07T12:32:56;9.77;;;2.53;;
67063;SDS011;58476;48.072;11.970;2023-05-07T12:35:28;6.57;;;2.10;;
67063;SDS011;58476;48.072;11.970;2023-05-07T12:37:55;7.97;;;2.25;;
67063;SDS011;58476;48.072;11.970;2023-05-07T12:40:22;5.63;;;2.30;;
67063;SDS011;58476;48.072;11.970;2023-05-07T12:42:47;8.85;;;2.25;;
67063;SDS011;58476;48.072;11.970;2023-05-07T12:47:43;5.07;;;2.07;;
67063;SDS011;58476;48.072;11.970;2023-05-07T12:50:09;4.22;;;1.98;;
67063;SDS011;58476;48.072;11.970;2023-05-07T12:52:35;4.63;;;2.20;;
67063;SDS011;58476;48.072;11.970;2023-05-07T12:55:05;6.10;;;2.17;;
67063;SDS011;58476;48.072;11.970;2023-05-07T12:57:31;7.60;;;2.10;;
67063;SDS011;58476;48.072;11.970;2023-05-07T13:00:03;3.67;;;2.00;;
67063;SDS011;58476;48.072;11.970;2023-05-07T13:02:32;4.28;;;1.80;;
67063;SDS011;58476;48.072;11.970;2023-05-07T13:04:58;3.10;;;1.90;;
67063;SDS011;58476;48.072;11.970;2023-05-07T13:07:27;5.53;;;2.00;;
67063;SDS011;58476;48.072;11.970;2023-05-07T13:09:52;3.95;;;1.90;;
67063;SDS011;58476;48.072;11.970;2023-05-07T13:12:17;6.10;;;1.92;;
67063;SDS011;58476;48.072;11.970;2023-05-07T13:14:43;3.13;;;1.90;;
67063;SDS011;58476;48.072;11.970;2023-05-07T13:17:08;3.72;;;1.85;;
67063;SDS011;58476;48.072;11.970;2023-05-07T13:19:33;2.05;;;1.80;;
67063;SDS011;58476;48.072;11.970;2023-05-07T13:21:59;3.70;;;2.05;;
67063;SDS011;58476;48.072;11.970;2023-05-07T13:24:24;8.20;;;1.95;;
67063;SDS011;58476;48.072;11.970;2023-05-07T13:26:49;9.27;;;2.10;;
67063;SDS011;58476;48.072;11.970;2023-05-07T13:30:48;5.22;;;2.03;;
67063;SDS011;58476;48.072;11.970;2023-05-07T13:33:14;3.90;;;1.83;;
67063;SDS011;58476;48.072;11.970;2023-05-07T13:35:39;5.95;;;2.08;;
67063;SDS011;58476;48.072;11.970;2023-05-07T13:38:04;3.42;;;1.88;;
67063;SDS011;58476;48.072;11.970;2023-05-07T13:40:30;4.68;;;1.95;;
67063;SDS011;58476;48.072;11.970;2023-05-07T13:42:57;9.88;;;4.43;;
67063;SDS011;58476;48.072;11.970;2023-05-07T13:45:23;16.13;;;9.45;;
67063;SDS011;58476;48.072;11.970;2023-05-07T13:47:48;12.10;;;9.00;;
67063;SDS011;58476;48.072;11.970;2023-05-07T13:50:13;11.95;;;8.32;;
67063;SDS011;58476;48.072;11.970;2023-05-07T13:52:42;10.75;;;7.97;;
67063;SDS011;58476;48.072;11.970;2023-05-07T13:55:11;13.53;;;8.33;;
67063;SDS011;58476;48.072;11.970;2023-05-07T13:57:37;12.50;;;7.35;;
67063;SDS011;58476;48.072;11.970;2023-05-07T14:00:03;9.10;;;6.57;;
67063;SDS011;58476;48.072;11.970;2023-05-07T14:02:29;8.50;;;5.97;;
67063;SDS011;58476;48.072;11.970;2023-05-07T14:04:55;9.63;;;5.97;;
67063;SDS011;58476;48.072;11.970;2023-05-07T14:07:20;8.15;;;5.43;;
67063;SDS011;58476;48.072;11.970;2023-05-07T14:09:45;10.35;;;5.05;;
67063;SDS011;58476;48.072;11.970;2023-05-07T14:12:11;7.85;;;5.32;;
67063;SDS011;58476;48.072;11.970;2023-05-07T14:14:36;8.00;;;4.53;;
67063;SDS011;58476;48.072;11.970;2023-05-07T14:17:01;9.20;;;4.57;;
67063;SDS011;58476;48.072;11.970;2023-05-07T14:19:26;7.60;;;4.40;;
67063;SDS011;58476;48.072;11.970;2023-05-07T14:21:52;8.25;;;4.95;;
67063;SDS011;58476;48.072;11.970;2023-05-07T14:24:17;14.00;;;6.95;;
67063;SDS011;58476;48.072;11.970;2023-05-07T14:26:42;22.20;;;13.20;;
67063;SDS011;58476;48.072;11.970;2023-05-07T14:29:08;27.83;;;14.20;;
67063;SDS011;58476;48.072;11.970;2023-05-07T14:31:33;40.25;;;20.23;;
67063;SDS011;58476;48.072;11.970;2023-05-07T14:33:58;51.85;;;30.95;;
67063;SDS011;58476;48.072;11.970;2023-05-07T14:36:24;111.35;;;58.58;;
67063;SDS011;58476;48.072;11.970;2023-05-07T14:38:49;74.55;;;41.28;;
67063;SDS011;58476;48.072;11.970;2023-05-07T14:41:15;71.57;;;38.20;;
67063;SDS011;58476;48.072;11.970;2023-05-07T14:43:41;66.75;;;38.50;;
67063;SDS011;58476;48.072;11.970;2023-05-07T14:46:07;60.88;;;35.67;;
67063;SDS011;58476;48.072;11.970;2023-05-07T14:48:32;55.67;;;33.40;;
67063;SDS011;58476;48.072;11.970;2023-05-07T14:50:57;49.95;;;27.33;;
67063;SDS011;58476;48.072;11.970;2023-05-07T14:53:23;47.20;;;24.98;;
67063;SDS011;58476;48.072;11.970;2023-05-07T14:55:48;41.00;;;23.52;;
67063;SDS011;58476;48.072;11.970;2023-05-07T14:58:14;30.30;;;17.58;;